sensor_id;sensor_type;location;lat;lon;timestamp;P1;durP1;ratioP1;P2;durP2;ratioP2
68757;SDS011;55747;51.998;4.466;2023-02-14T00:01:19;73.45;;;32.35;;
68757;SDS011;55747;51.998;4.466;2023-02-14T00:03:45;84.45;;;37.28;;
68757;SDS011;55747;51.998;4.466;2023-02-14T00:06:11;72.05;;;34.63;;
68757;SDS011;55747;51.998;4.466;2023-02-14T00:08:37;70.70;;;33.10;;
68757;SDS011;55747;51.998;4.466;2023-02-14T00:11:05;70.13;;;32.85;;
68757;SDS011;55747;51.998;4.466;2023-02-14T00:13:30;78.10;;;34.72;;
68757;SDS011;55747;51.998;4.466;2023-02-14T00:15:56;81.32;;;34.78;;
68757;SDS011;55747;51.998;4.466;2023-02-14T00:18:21;74.53;;;33.85;;
68757;SDS011;55747;51.998;4.466;2023-02-14T00:20:46;79.07;;;34.63;;
68757;SDS011;55747;51.998;4.466;2023-02-14T00:23:15;70.82;;;33.25;;
68757;SDS011;55747;51.998;4.466;2023-02-14T00:25:40;75.47;;;32.75;;
68757;SDS011;55747;51.998;4.466;2023-02-14T00:28:06;68.85;;;32.60;;
68757;SDS011;55747;51.998;4.466;2023-02-14T00:30:31;74.57;;;33.33;;
68757;SDS011;55747;51.998;4.466;2023-02-14T00:32:56;77.78;;;33.40;;
68757;SDS011;55747;51.998;4.466;2023-02-14T00:35:22;66.05;;;31.00;;
68757;SDS011;55747;51.998;4.466;2023-02-14T00:37:47;64.78;;;31.05;;
68757;SDS011;55747;51.998;4.466;2023-02-14T00:40:12;63.13;;;30.40;;
68757;SDS011;55747;51.998;4.466;2023-02-14T00:42:40;72.30;;;32.67;;
68757;SDS011;55747;51.998;4.466;2023-02-14T00:45:05;74.63;;;33.42;;
68757;SDS011;55747;51.998;4.466;2023-02-14T00:47:31;65.50;;;31.42;;
68757;SDS011;55747;51.998;4.466;2023-02-14T00:49:56;64.07;;;30.23;;
68757;SDS011;55747;51.998;4.466;2023-02-14T00:52:26;70.18;;;31.02;;
68757;SDS011;55747;51.998;4.466;2023-02-14T00:54:53;63.35;;;29.65;;
68757;SDS011;55747;51.998;4.466;2023-02-14T00:57:19;65.35;;;29.70;;
68757;SDS011;55747;51.998;4.466;2023-02-14T00:59:44;63.70;;;29.83;;
68757;SDS011;55747;51.998;4.466;2023-02-14T01:02:09;63.50;;;29.50;;
68757;SDS011;55747;51.998;4.466;2023-02-14T01:04:35;59.80;;;27.95;;
68757;SDS011;55747;51.998;4.466;2023-02-14T01:07:00;59.88;;;28.45;;
68757;SDS011;55747;51.998;4.466;2023-02-14T01:09:25;61.00;;;28.92;;
68757;SDS011;55747;51.998;4.466;2023-02-14T01:11:51;65.68;;;30.60;;
68757;SDS011;55747;51.998;4.466;2023-02-14T01:14:16;58.20;;;27.55;;
68757;SDS011;55747;51.998;4.466;2023-02-14T01:16:41;56.72;;;28.67;;
68757;SDS011;55747;51.998;4.466;2023-02-14T01:19:07;57.50;;;27.50;;
68757;SDS011;55747;51.998;4.466;2023-02-14T01:21:33;55.60;;;27.48;;
68757;SDS011;55747;51.998;4.466;2023-02-14T01:24:00;56.13;;;27.20;;
68757;SDS011;55747;51.998;4.466;2023-02-14T01:26:27;59.65;;;28.50;;
68757;SDS011;55747;51.998;4.466;2023-02-14T01:28:53;54.22;;;27.60;;
68757;SDS011;55747;51.998;4.466;2023-02-14T01:31:20;57.60;;;28.55;;
68757;SDS011;55747;51.998;4.466;2023-02-14T01:33:48;55.60;;;28.00;;
68757;SDS011;55747;51.998;4.466;2023-02-14T01:36:18;59.88;;;30.63;;
68757;SDS011;55747;51.998;4.466;2023-02-14T01:38:44;70.78;;;31.65;;
68757;SDS011;55747;51.998;4.466;2023-02-14T01:41:10;70.97;;;32.40;;
68757;SDS011;55747;51.998;4.466;2023-02-14T01:43:52;71.72;;;32.22;;
68757;SDS011;55747;51.998;4.466;2023-02-14T01:46:20;64.35;;;31.40;;
68757;SDS011;55747;51.998;4.466;2023-02-14T01:48:46;73.38;;;33.35;;
68757;SDS011;55747;51.998;4.466;2023-02-14T01:51:13;72.00;;;32.08;;
68757;SDS011;55747;51.998;4.466;2023-02-14T01:53:40;73.05;;;33.85;;
68757;SDS011;55747;51.998;4.466;2023-02-14T01:56:07;72.35;;;33.55;;
68757;SDS011;55747;51.998;4.466;2023-02-14T01:58:38;69.43;;;32.35;;
68757;SDS011;55747;51.998;4.466;2023-02-14T02:01:08;70.40;;;30.83;;
68757;SDS011;55747;51.998;4.466;2023-02-14T02:03:38;64.43;;;31.27;;
68757;SDS011;55747;51.998;4.466;2023-02-14T02:06:19;67.07;;;30.30;;
68757;SDS011;55747;51.998;4.466;2023-02-14T02:08:58;73.88;;;33.55;;
68757;SDS011;55747;51.998;4.466;2023-02-14T02:11:31;71.57;;;32.65;;
68757;SDS011;55747;51.998;4.466;2023-02-14T02:13:57;74.05;;;33.28;;
68757;SDS011;55747;51.998;4.466;2023-02-14T02:41:46;70.72;;;30.83;;
68757;SDS011;55747;51.998;4.466;2023-02-14T02:47:26;58.80;;;28.73;;
68757;SDS011;55747;51.998;4.466;2023-02-14T02:55:49;68.28;;;31.30;;
68757;SDS011;55747;51.998;4.466;2023-02-14T03:01:23;67.10;;;31.38;;
68757;SDS011;55747;51.998;4.466;2023-02-14T03:04:02;73.15;;;32.00;;
68757;SDS011;55747;51.998;4.466;2023-02-14T03:06:49;72.47;;;34.85;;
68757;SDS011;55747;51.998;4.466;2023-02-14T03:11:53;73.57;;;33.20;;
68757;SDS011;55747;51.998;4.466;2023-02-14T03:14:40;72.78;;;32.63;;
68757;SDS011;55747;51.998;4.466;2023-02-14T03:20:13;61.88;;;29.67;;
68757;SDS011;55747;51.998;4.466;2023-02-14T03:22:48;56.80;;;27.90;;
68757;SDS011;55747;51.998;4.466;2023-02-14T03:25:30;54.13;;;27.13;;
68757;SDS011;55747;51.998;4.466;2023-02-14T03:28:09;57.13;;;27.60;;
68757;SDS011;55747;51.998;4.466;2023-02-14T03:34:01;58.17;;;28.83;;
68757;SDS011;55747;51.998;4.466;2023-02-14T03:36:35;60.63;;;29.25;;
68757;SDS011;55747;51.998;4.466;2023-02-14T03:39:06;56.47;;;28.13;;
68757;SDS011;55747;51.998;4.466;2023-02-14T03:41:41;59.78;;;28.85;;
68757;SDS011;55747;51.998;4.466;2023-02-14T03:44:16;62.88;;;29.40;;
68757;SDS011;55747;51.998;4.466;2023-02-14T03:46:46;63.00;;;29.13;;
68757;SDS011;55747;51.998;4.466;2023-02-14T03:49:23;56.47;;;28.10;;
68757;SDS011;55747;51.998;4.466;2023-02-14T03:51:53;67.97;;;28.92;;
68757;SDS011;55747;51.998;4.466;2023-02-14T03:54:21;72.18;;;30.65;;
68757;SDS011;55747;51.998;4.466;2023-02-14T03:56:49;69.32;;;31.15;;
68757;SDS011;55747;51.998;4.466;2023-02-14T03:59:18;69.53;;;31.38;;
68757;SDS011;55747;51.998;4.466;2023-02-14T04:01:47;67.47;;;30.77;;
68757;SDS011;55747;51.998;4.466;2023-02-14T04:04:19;71.25;;;31.05;;
68757;SDS011;55747;51.998;4.466;2023-02-14T04:06:47;65.57;;;30.23;;
68757;SDS011;55747;51.998;4.466;2023-02-14T04:09:12;67.82;;;31.40;;
68757;SDS011;55747;51.998;4.466;2023-02-14T04:11:38;70.18;;;32.20;;
68757;SDS011;55747;51.998;4.466;2023-02-14T04:14:03;68.07;;;32.00;;
68757;SDS011;55747;51.998;4.466;2023-02-14T04:16:29;70.55;;;31.38;;
68757;SDS011;55747;51.998;4.466;2023-02-14T04:19:15;64.18;;;30.17;;
68757;SDS011;55747;51.998;4.466;2023-02-14T04:24:11;58.45;;;27.88;;
68757;SDS011;55747;51.998;4.466;2023-02-14T04:26:37;59.45;;;28.73;;
68757;SDS011;55747;51.998;4.466;2023-02-14T04:29:02;64.18;;;30.73;;
68757;SDS011;55747;51.998;4.466;2023-02-14T04:31:27;72.25;;;31.95;;
68757;SDS011;55747;51.998;4.466;2023-02-14T04:33:53;68.57;;;31.10;;
68757;SDS011;55747;51.998;4.466;2023-02-14T04:36:18;71.70;;;33.28;;
68757;SDS011;55747;51.998;4.466;2023-02-14T04:38:43;70.82;;;32.25;;
68757;SDS011;55747;51.998;4.466;2023-02-14T04:41:09;68.30;;;31.40;;
68757;SDS011;55747;51.998;4.466;2023-02-14T04:43:34;73.07;;;31.60;;
68757;SDS011;55747;51.998;4.466;2023-02-14T04:45:59;65.45;;;31.63;;
68757;SDS011;55747;51.998;4.466;2023-02-14T04:48:25;68.80;;;32.33;;
68757;SDS011;55747;51.998;4.466;2023-02-14T04:50:51;71.65;;;32.00;;
68757;SDS011;55747;51.998;4.466;2023-02-14T04:53:17;71.05;;;32.72;;
68757;SDS011;55747;51.998;4.466;2023-02-14T04:55:43;72.03;;;32.53;;
68757;SDS011;55747;51.998;4.466;2023-02-14T04:58:09;68.47;;;32.83;;
68757;SDS011;55747;51.998;4.466;2023-02-14T05:00:34;75.90;;;32.95;;
68757;SDS011;55747;51.998;4.466;2023-02-14T05:03:00;65.50;;;32.60;;
68757;SDS011;55747;51.998;4.466;2023-02-14T05:05:25;61.55;;;29.20;;
68757;SDS011;55747;51.998;4.466;2023-02-14T05:07:51;64.13;;;30.33;;
68757;SDS011;55747;51.998;4.466;2023-02-14T05:10:16;55.22;;;26.92;;
68757;SDS011;55747;51.998;4.466;2023-02-14T05:12:41;68.93;;;31.08;;
68757;SDS011;55747;51.998;4.466;2023-02-14T05:15:07;71.70;;;32.35;;
68757;SDS011;55747;51.998;4.466;2023-02-14T05:17:33;63.75;;;29.02;;
68757;SDS011;55747;51.998;4.466;2023-02-14T05:19:58;60.10;;;28.17;;
68757;SDS011;55747;51.998;4.466;2023-02-14T05:22:24;57.97;;;27.83;;
68757;SDS011;55747;51.998;4.466;2023-02-14T05:24:49;61.25;;;28.50;;
68757;SDS011;55747;51.998;4.466;2023-02-14T05:27:14;69.53;;;31.42;;
68757;SDS011;55747;51.998;4.466;2023-02-14T05:29:40;80.07;;;34.60;;
68757;SDS011;55747;51.998;4.466;2023-02-14T05:32:05;75.43;;;32.85;;
68757;SDS011;55747;51.998;4.466;2023-02-14T05:34:30;72.07;;;33.75;;
68757;SDS011;55747;51.998;4.466;2023-02-14T05:36:56;75.70;;;33.55;;
68757;SDS011;55747;51.998;4.466;2023-02-14T05:39:21;69.28;;;32.92;;
68757;SDS011;55747;51.998;4.466;2023-02-14T05:41:47;77.30;;;34.45;;
68757;SDS011;55747;51.998;4.466;2023-02-14T05:44:12;76.00;;;35.17;;
68757;SDS011;55747;51.998;4.466;2023-02-14T05:46:37;74.20;;;33.60;;
68757;SDS011;55747;51.998;4.466;2023-02-14T05:49:02;75.57;;;34.38;;
68757;SDS011;55747;51.998;4.466;2023-02-14T05:51:28;73.32;;;33.58;;
68757;SDS011;55747;51.998;4.466;2023-02-14T05:53:53;75.90;;;34.17;;
68757;SDS011;55747;51.998;4.466;2023-02-14T05:56:19;76.60;;;34.15;;
68757;SDS011;55747;51.998;4.466;2023-02-14T05:58:44;77.53;;;35.03;;
68757;SDS011;55747;51.998;4.466;2023-02-14T06:01:10;84.40;;;35.67;;
68757;SDS011;55747;51.998;4.466;2023-02-14T06:03:35;84.60;;;36.63;;
68757;SDS011;55747;51.998;4.466;2023-02-14T06:06:00;83.78;;;36.22;;
68757;SDS011;55747;51.998;4.466;2023-02-14T06:08:29;89.57;;;38.17;;
68757;SDS011;55747;51.998;4.466;2023-02-14T06:10:54;93.25;;;39.50;;
68757;SDS011;55747;51.998;4.466;2023-02-14T06:13:19;93.20;;;40.15;;
68757;SDS011;55747;51.998;4.466;2023-02-14T06:15:45;89.03;;;38.72;;
68757;SDS011;55747;51.998;4.466;2023-02-14T06:18:10;91.55;;;38.65;;
68757;SDS011;55747;51.998;4.466;2023-02-14T06:20:36;86.82;;;38.15;;
68757;SDS011;55747;51.998;4.466;2023-02-14T06:23:01;86.20;;;38.67;;
68757;SDS011;55747;51.998;4.466;2023-02-14T06:25:26;92.18;;;39.65;;
68757;SDS011;55747;51.998;4.466;2023-02-14T06:27:55;90.85;;;39.33;;
68757;SDS011;55747;51.998;4.466;2023-02-14T06:30:22;90.43;;;39.88;;
68757;SDS011;55747;51.998;4.466;2023-02-14T06:32:47;87.63;;;39.45;;
68757;SDS011;55747;51.998;4.466;2023-02-14T06:35:13;96.55;;;41.63;;
68757;SDS011;55747;51.998;4.466;2023-02-14T06:37:39;92.75;;;39.67;;
68757;SDS011;55747;51.998;4.466;2023-02-14T06:40:06;90.75;;;38.15;;
68757;SDS011;55747;51.998;4.466;2023-02-14T06:42:32;99.43;;;40.55;;
68757;SDS011;55747;51.998;4.466;2023-02-14T06:44:58;99.22;;;41.17;;
68757;SDS011;55747;51.998;4.466;2023-02-14T06:47:23;100.15;;;41.58;;
68757;SDS011;55747;51.998;4.466;2023-02-14T06:49:48;97.43;;;41.70;;
68757;SDS011;55747;51.998;4.466;2023-02-14T06:52:13;106.40;;;42.78;;
68757;SDS011;55747;51.998;4.466;2023-02-14T06:54:39;98.40;;;42.42;;
68757;SDS011;55747;51.998;4.466;2023-02-14T06:59:35;99.73;;;41.77;;
68757;SDS011;55747;51.998;4.466;2023-02-14T07:02:04;101.45;;;42.38;;
68757;SDS011;55747;51.998;4.466;2023-02-14T07:04:29;105.68;;;42.47;;
68757;SDS011;55747;51.998;4.466;2023-02-14T07:06:55;106.97;;;44.10;;
68757;SDS011;55747;51.998;4.466;2023-02-14T07:09:21;104.82;;;43.28;;
68757;SDS011;55747;51.998;4.466;2023-02-14T07:11:46;112.53;;;44.55;;
68757;SDS011;55747;51.998;4.466;2023-02-14T07:14:17;98.75;;;42.78;;
68757;SDS011;55747;51.998;4.466;2023-02-14T07:16:42;99.60;;;40.67;;
68757;SDS011;55747;51.998;4.466;2023-02-14T07:19:08;94.70;;;39.72;;
68757;SDS011;55747;51.998;4.466;2023-02-14T07:21:33;85.50;;;37.53;;
68757;SDS011;55747;51.998;4.466;2023-02-14T07:23:59;86.68;;;35.40;;
68757;SDS011;55747;51.998;4.466;2023-02-14T07:26:24;85.75;;;36.40;;
68757;SDS011;55747;51.998;4.466;2023-02-14T07:28:49;81.60;;;35.67;;
68757;SDS011;55747;51.998;4.466;2023-02-14T07:31:16;83.70;;;37.30;;
68757;SDS011;55747;51.998;4.466;2023-02-14T07:33:42;87.45;;;37.65;;
68757;SDS011;55747;51.998;4.466;2023-02-14T07:36:08;99.40;;;41.35;;
68757;SDS011;55747;51.998;4.466;2023-02-14T07:38:34;86.72;;;38.70;;
68757;SDS011;55747;51.998;4.466;2023-02-14T07:41:00;99.53;;;41.67;;
68757;SDS011;55747;51.998;4.466;2023-02-14T07:43:26;96.75;;;41.70;;
68757;SDS011;55747;51.998;4.466;2023-02-14T07:45:52;100.35;;;43.08;;
68757;SDS011;55747;51.998;4.466;2023-02-14T07:48:17;103.50;;;43.22;;
68757;SDS011;55747;51.998;4.466;2023-02-14T07:50:43;110.45;;;44.00;;
68757;SDS011;55747;51.998;4.466;2023-02-14T07:53:08;102.28;;;44.80;;
68757;SDS011;55747;51.998;4.466;2023-02-14T07:55:34;108.15;;;45.22;;
68757;SDS011;55747;51.998;4.466;2023-02-14T07:58:00;109.45;;;46.00;;
68757;SDS011;55747;51.998;4.466;2023-02-14T08:00:25;114.25;;;47.00;;
68757;SDS011;55747;51.998;4.466;2023-02-14T08:02:51;111.35;;;45.40;;
68757;SDS011;55747;51.998;4.466;2023-02-14T08:05:17;105.20;;;43.97;;
68757;SDS011;55747;51.998;4.466;2023-02-14T08:07:43;101.95;;;43.97;;
68757;SDS011;55747;51.998;4.466;2023-02-14T08:10:13;103.13;;;45.20;;
68757;SDS011;55747;51.998;4.466;2023-02-14T08:12:41;111.22;;;47.25;;
68757;SDS011;55747;51.998;4.466;2023-02-14T08:15:32;112.30;;;46.83;;
68757;SDS011;55747;51.998;4.466;2023-02-14T08:18:17;114.07;;;47.72;;
68757;SDS011;55747;51.998;4.466;2023-02-14T08:20:45;119.15;;;48.78;;
68757;SDS011;55747;51.998;4.466;2023-02-14T08:23:13;124.95;;;50.00;;
68757;SDS011;55747;51.998;4.466;2023-02-14T08:25:39;118.35;;;49.05;;
68757;SDS011;55747;51.998;4.466;2023-02-14T08:28:04;112.60;;;48.25;;
68757;SDS011;55747;51.998;4.466;2023-02-14T08:30:30;113.47;;;49.00;;
68757;SDS011;55747;51.998;4.466;2023-02-14T08:32:56;121.90;;;51.80;;
68757;SDS011;55747;51.998;4.466;2023-02-14T08:35:22;118.43;;;51.28;;
68757;SDS011;55747;51.998;4.466;2023-02-14T08:37:47;117.63;;;49.05;;
68757;SDS011;55747;51.998;4.466;2023-02-14T08:40:13;115.57;;;49.25;;
68757;SDS011;55747;51.998;4.466;2023-02-14T08:42:38;114.78;;;49.78;;
68757;SDS011;55747;51.998;4.466;2023-02-14T08:45:04;109.63;;;47.55;;
68757;SDS011;55747;51.998;4.466;2023-02-14T08:47:32;115.88;;;49.72;;
68757;SDS011;55747;51.998;4.466;2023-02-14T08:50:00;118.43;;;50.67;;
68757;SDS011;55747;51.998;4.466;2023-02-14T08:52:26;116.90;;;51.60;;
68757;SDS011;55747;51.998;4.466;2023-02-14T08:54:52;112.97;;;51.30;;
68757;SDS011;55747;51.998;4.466;2023-02-14T08:57:17;114.80;;;49.17;;
68757;SDS011;55747;51.998;4.466;2023-02-14T08:59:45;101.00;;;48.78;;
68757;SDS011;55747;51.998;4.466;2023-02-14T09:02:13;105.93;;;48.92;;
68757;SDS011;55747;51.998;4.466;2023-02-14T09:04:40;105.80;;;48.13;;
68757;SDS011;55747;51.998;4.466;2023-02-14T09:07:06;102.05;;;48.13;;
68757;SDS011;55747;51.998;4.466;2023-02-14T09:09:34;105.65;;;48.20;;
68757;SDS011;55747;51.998;4.466;2023-02-14T09:12:07;97.57;;;48.30;;
68757;SDS011;55747;51.998;4.466;2023-02-14T09:14:36;93.13;;;47.63;;
68757;SDS011;55747;51.998;4.466;2023-02-14T09:17:03;90.68;;;45.83;;
68757;SDS011;55747;51.998;4.466;2023-02-14T09:19:33;94.25;;;45.95;;
68757;SDS011;55747;51.998;4.466;2023-02-14T09:22:03;88.88;;;45.22;;
68757;SDS011;55747;51.998;4.466;2023-02-14T09:24:33;81.90;;;42.35;;
68757;SDS011;55747;51.998;4.466;2023-02-14T09:26:59;69.70;;;41.42;;
68757;SDS011;55747;51.998;4.466;2023-02-14T09:29:25;55.97;;;34.20;;
68757;SDS011;55747;51.998;4.466;2023-02-14T09:31:53;58.58;;;33.08;;
68757;SDS011;55747;51.998;4.466;2023-02-14T09:34:22;52.38;;;32.75;;
68757;SDS011;55747;51.998;4.466;2023-02-14T09:37:08;57.40;;;32.22;;
68757;SDS011;55747;51.998;4.466;2023-02-14T09:39:39;48.30;;;31.50;;
68757;SDS011;55747;51.998;4.466;2023-02-14T09:45:11;48.50;;;31.10;;
68757;SDS011;55747;51.998;4.466;2023-02-14T09:48:14;48.63;;;31.20;;
68757;SDS011;55747;51.998;4.466;2023-02-14T09:50:57;50.50;;;31.58;;
68757;SDS011;55747;51.998;4.466;2023-02-14T09:53:39;50.17;;;30.92;;
68757;SDS011;55747;51.998;4.466;2023-02-14T09:56:28;50.72;;;31.27;;
68757;SDS011;55747;51.998;4.466;2023-02-14T10:05:13;42.25;;;28.80;;
68757;SDS011;55747;51.998;4.466;2023-02-14T10:10:22;46.33;;;28.38;;
68757;SDS011;55747;51.998;4.466;2023-02-14T10:15:26;44.25;;;29.45;;
68757;SDS011;55747;51.998;4.466;2023-02-14T10:18:08;43.40;;;28.38;;
68757;SDS011;55747;51.998;4.466;2023-02-14T10:20:43;44.40;;;29.55;;
68757;SDS011;55747;51.998;4.466;2023-02-14T10:23:29;42.35;;;29.17;;
68757;SDS011;55747;51.998;4.466;2023-02-14T10:26:17;45.95;;;30.50;;
68757;SDS011;55747;51.998;4.466;2023-02-14T10:29:06;45.25;;;30.83;;
68757;SDS011;55747;51.998;4.466;2023-02-14T10:31:39;42.83;;;29.65;;
68757;SDS011;55747;51.998;4.466;2023-02-14T10:43:38;47.67;;;30.15;;
68757;SDS011;55747;51.998;4.466;2023-02-14T10:46:26;45.30;;;30.45;;
68757;SDS011;55747;51.998;4.466;2023-02-14T10:51:53;48.22;;;30.10;;
68757;SDS011;55747;51.998;4.466;2023-02-14T10:54:30;43.33;;;28.50;;
68757;SDS011;55747;51.998;4.466;2023-02-14T10:57:04;44.28;;;30.52;;
68757;SDS011;55747;51.998;4.466;2023-02-14T10:59:45;44.92;;;30.33;;
68757;SDS011;55747;51.998;4.466;2023-02-14T11:02:19;46.33;;;31.20;;
68757;SDS011;55747;51.998;4.466;2023-02-14T11:04:48;46.70;;;31.85;;
68757;SDS011;55747;51.998;4.466;2023-02-14T11:07:15;46.80;;;30.50;;
68757;SDS011;55747;51.998;4.466;2023-02-14T11:09:42;41.55;;;28.95;;
68757;SDS011;55747;51.998;4.466;2023-02-14T11:12:08;46.03;;;30.80;;
68757;SDS011;55747;51.998;4.466;2023-02-14T11:14:37;44.47;;;30.55;;
68757;SDS011;55747;51.998;4.466;2023-02-14T11:19:56;46.50;;;31.40;;
68757;SDS011;55747;51.998;4.466;2023-02-14T11:22:29;41.60;;;28.48;;
68757;SDS011;55747;51.998;4.466;2023-02-14T11:25:06;43.10;;;30.02;;
68757;SDS011;55747;51.998;4.466;2023-02-14T11:27:43;42.53;;;29.65;;
68757;SDS011;55747;51.998;4.466;2023-02-14T11:30:26;48.95;;;32.40;;
68757;SDS011;55747;51.998;4.466;2023-02-14T11:32:55;45.30;;;30.45;;
68757;SDS011;55747;51.998;4.466;2023-02-14T11:35:22;47.03;;;29.85;;
68757;SDS011;55747;51.998;4.466;2023-02-14T11:37:52;40.33;;;29.10;;
68757;SDS011;55747;51.998;4.466;2023-02-14T11:43:25;41.08;;;29.67;;
68757;SDS011;55747;51.998;4.466;2023-02-14T11:45:52;45.60;;;30.60;;
68757;SDS011;55747;51.998;4.466;2023-02-14T11:48:32;45.60;;;29.48;;
68757;SDS011;55747;51.998;4.466;2023-02-14T11:51:07;47.13;;;30.50;;
68757;SDS011;55747;51.998;4.466;2023-02-14T11:53:46;41.72;;;28.83;;
68757;SDS011;55747;51.998;4.466;2023-02-14T11:56:14;42.13;;;28.88;;
68757;SDS011;55747;51.998;4.466;2023-02-14T11:58:55;39.42;;;29.27;;
68757;SDS011;55747;51.998;4.466;2023-02-14T12:01:29;37.38;;;27.50;;
68757;SDS011;55747;51.998;4.466;2023-02-14T12:03:57;41.78;;;28.90;;
68757;SDS011;55747;51.998;4.466;2023-02-14T12:06:29;44.75;;;29.60;;
68757;SDS011;55747;51.998;4.466;2023-02-14T12:11:53;39.90;;;27.33;;
68757;SDS011;55747;51.998;4.466;2023-02-14T12:14:24;37.05;;;27.25;;
68757;SDS011;55747;51.998;4.466;2023-02-14T12:16:57;38.88;;;27.73;;
68757;SDS011;55747;51.998;4.466;2023-02-14T12:19:33;41.28;;;28.63;;
68757;SDS011;55747;51.998;4.466;2023-02-14T12:22:24;41.08;;;29.17;;
68757;SDS011;55747;51.998;4.466;2023-02-14T12:30:28;41.95;;;27.88;;
68757;SDS011;55747;51.998;4.466;2023-02-14T12:32:57;42.17;;;28.23;;
68757;SDS011;55747;51.998;4.466;2023-02-14T12:43:55;38.45;;;27.80;;
68757;SDS011;55747;51.998;4.466;2023-02-14T12:46:31;38.72;;;27.73;;
68757;SDS011;55747;51.998;4.466;2023-02-14T13:08:46;35.83;;;25.40;;
68757;SDS011;55747;51.998;4.466;2023-02-14T13:14:20;41.88;;;26.92;;
68757;SDS011;55747;51.998;4.466;2023-02-14T13:17:13;38.05;;;26.90;;
68757;SDS011;55747;51.998;4.466;2023-02-14T13:22:40;38.05;;;26.58;;
68757;SDS011;55747;51.998;4.466;2023-02-14T13:25:22;37.42;;;25.00;;
68757;SDS011;55747;51.998;4.466;2023-02-14T13:28:06;38.85;;;27.25;;
68757;SDS011;55747;51.998;4.466;2023-02-14T13:30:46;39.78;;;26.83;;
68757;SDS011;55747;51.998;4.466;2023-02-14T13:33:28;39.08;;;25.83;;
68757;SDS011;55747;51.998;4.466;2023-02-14T13:35:59;35.60;;;24.85;;
68757;SDS011;55747;51.998;4.466;2023-02-14T13:38:26;41.47;;;26.05;;
68757;SDS011;55747;51.998;4.466;2023-02-14T13:40:55;35.38;;;25.60;;
68757;SDS011;55747;51.998;4.466;2023-02-14T13:51:52;34.00;;;26.05;;
68757;SDS011;55747;51.998;4.466;2023-02-14T13:54:33;34.75;;;25.85;;
68757;SDS011;55747;51.998;4.466;2023-02-14T13:57:30;35.45;;;24.90;;
68757;SDS011;55747;51.998;4.466;2023-02-14T14:02:47;41.10;;;27.60;;
68757;SDS011;55747;51.998;4.466;2023-02-14T14:10:46;39.13;;;26.85;;
68757;SDS011;55747;51.998;4.466;2023-02-14T14:18:47;40.38;;;28.27;;
68757;SDS011;55747;51.998;4.466;2023-02-14T14:29:45;38.85;;;27.23;;
68757;SDS011;55747;51.998;4.466;2023-02-14T14:32:15;39.37;;;27.00;;
68757;SDS011;55747;51.998;4.466;2023-02-14T14:34:50;38.90;;;27.63;;
68757;SDS011;55747;51.998;4.466;2023-02-14T14:37:19;41.58;;;27.65;;
68757;SDS011;55747;51.998;4.466;2023-02-14T14:39:58;39.92;;;27.90;;
68757;SDS011;55747;51.998;4.466;2023-02-14T14:42:28;43.65;;;29.25;;
68757;SDS011;55747;51.998;4.466;2023-02-14T14:44:57;41.90;;;28.65;;
68757;SDS011;55747;51.998;4.466;2023-02-14T14:47:50;44.78;;;28.95;;
68757;SDS011;55747;51.998;4.466;2023-02-14T14:50:18;45.38;;;29.70;;
68757;SDS011;55747;51.998;4.466;2023-02-14T14:52:48;45.17;;;29.17;;
68757;SDS011;55747;51.998;4.466;2023-02-14T14:55:27;40.00;;;27.45;;
68757;SDS011;55747;51.998;4.466;2023-02-14T14:57:58;46.78;;;31.00;;
68757;SDS011;55747;51.998;4.466;2023-02-14T15:00:29;42.65;;;29.48;;
68757;SDS011;55747;51.998;4.466;2023-02-14T15:02:55;40.15;;;27.55;;
68757;SDS011;55747;51.998;4.466;2023-02-14T15:05:26;43.10;;;29.67;;
68757;SDS011;55747;51.998;4.466;2023-02-14T15:08:11;44.47;;;29.70;;
68757;SDS011;55747;51.998;4.466;2023-02-14T15:10:53;44.60;;;30.52;;
68757;SDS011;55747;51.998;4.466;2023-02-14T15:13:32;47.00;;;29.73;;
68757;SDS011;55747;51.998;4.466;2023-02-14T15:21:47;43.00;;;28.65;;
68757;SDS011;55747;51.998;4.466;2023-02-14T15:24:16;42.08;;;28.33;;
68757;SDS011;55747;51.998;4.466;2023-02-14T15:26:43;43.90;;;28.80;;
68757;SDS011;55747;51.998;4.466;2023-02-14T15:29:17;42.88;;;28.10;;
68757;SDS011;55747;51.998;4.466;2023-02-14T15:31:45;45.78;;;30.00;;
68757;SDS011;55747;51.998;4.466;2023-02-14T15:34:11;46.47;;;30.70;;
68757;SDS011;55747;51.998;4.466;2023-02-14T15:36:37;47.75;;;30.30;;
68757;SDS011;55747;51.998;4.466;2023-02-14T15:39:05;48.10;;;30.15;;
68757;SDS011;55747;51.998;4.466;2023-02-14T15:41:34;48.60;;;30.70;;
68757;SDS011;55747;51.998;4.466;2023-02-14T15:43:59;50.10;;;31.52;;
68757;SDS011;55747;51.998;4.466;2023-02-14T15:49:10;55.53;;;33.53;;
68757;SDS011;55747;51.998;4.466;2023-02-14T15:51:39;51.28;;;32.58;;
68757;SDS011;55747;51.998;4.466;2023-02-14T15:54:07;52.28;;;32.25;;
68757;SDS011;55747;51.998;4.466;2023-02-14T15:56:45;51.65;;;32.72;;
68757;SDS011;55747;51.998;4.466;2023-02-14T15:59:15;52.17;;;33.22;;
68757;SDS011;55747;51.998;4.466;2023-02-14T16:01:57;50.50;;;31.98;;
68757;SDS011;55747;51.998;4.466;2023-02-14T16:04:34;53.53;;;32.97;;
68757;SDS011;55747;51.998;4.466;2023-02-14T16:07:22;52.40;;;33.50;;
68757;SDS011;55747;51.998;4.466;2023-02-14T16:12:52;57.50;;;33.65;;
68757;SDS011;55747;51.998;4.466;2023-02-14T16:15:30;57.53;;;33.60;;
68757;SDS011;55747;51.998;4.466;2023-02-14T16:18:00;54.95;;;33.13;;
68757;SDS011;55747;51.998;4.466;2023-02-14T16:20:42;51.37;;;33.47;;
68757;SDS011;55747;51.998;4.466;2023-02-14T16:23:25;58.13;;;33.78;;
68757;SDS011;55747;51.998;4.466;2023-02-14T16:25:52;56.13;;;33.97;;
68757;SDS011;55747;51.998;4.466;2023-02-14T16:28:21;57.55;;;33.80;;
68757;SDS011;55747;51.998;4.466;2023-02-14T16:30:51;56.20;;;34.72;;
68757;SDS011;55747;51.998;4.466;2023-02-14T16:33:20;58.28;;;35.40;;
68757;SDS011;55747;51.998;4.466;2023-02-14T16:36:00;63.08;;;35.85;;
68757;SDS011;55747;51.998;4.466;2023-02-14T16:38:30;64.18;;;35.00;;
68757;SDS011;55747;51.998;4.466;2023-02-14T16:40:59;60.35;;;34.95;;
68757;SDS011;55747;51.998;4.466;2023-02-14T16:43:25;61.33;;;34.35;;
68757;SDS011;55747;51.998;4.466;2023-02-14T16:45:50;60.88;;;35.70;;
68757;SDS011;55747;51.998;4.466;2023-02-14T16:48:15;61.88;;;35.42;;
68757;SDS011;55747;51.998;4.466;2023-02-14T16:50:41;62.38;;;35.80;;
68757;SDS011;55747;51.998;4.466;2023-02-14T16:53:13;63.92;;;35.08;;
68757;SDS011;55747;51.998;4.466;2023-02-14T16:55:47;65.55;;;36.95;;
68757;SDS011;55747;51.998;4.466;2023-02-14T16:58:13;61.65;;;35.47;;
68757;SDS011;55747;51.998;4.466;2023-02-14T17:00:39;66.97;;;36.40;;
68757;SDS011;55747;51.998;4.466;2023-02-14T17:03:04;69.90;;;36.47;;
68757;SDS011;55747;51.998;4.466;2023-02-14T17:05:34;65.82;;;37.05;;
68757;SDS011;55747;51.998;4.466;2023-02-14T17:08:00;59.40;;;35.17;;
68757;SDS011;55747;51.998;4.466;2023-02-14T17:10:27;61.85;;;33.63;;
68757;SDS011;55747;51.998;4.466;2023-02-14T17:12:54;66.78;;;37.10;;
68757;SDS011;55747;51.998;4.466;2023-02-14T17:15:23;62.58;;;36.03;;
68757;SDS011;55747;51.998;4.466;2023-02-14T17:17:50;65.47;;;35.45;;
68757;SDS011;55747;51.998;4.466;2023-02-14T17:20:23;67.00;;;36.95;;
68757;SDS011;55747;51.998;4.466;2023-02-14T17:22:48;68.28;;;36.75;;
68757;SDS011;55747;51.998;4.466;2023-02-14T17:25:13;62.40;;;35.80;;